sensor_id;sensor_type;location;lat;lon;timestamp;P1;durP1;ratioP1;P2;durP2;ratioP2
80185;SDS011;69904;52.122;5.422;2023-12-14T00:01:13;8.48;;;3.72;;
80185;SDS011;69904;52.122;5.422;2023-12-14T00:03:40;9.23;;;3.88;;
80185;SDS011;69904;52.122;5.422;2023-12-14T00:06:07;10.23;;;3.95;;
80185;SDS011;69904;52.122;5.422;2023-12-14T00:08:34;9.25;;;5.35;;
80185;SDS011;69904;52.122;5.422;2023-12-14T00:11:03;10.05;;;4.07;;
80185;SDS011;69904;52.122;5.422;2023-12-14T00:13:31;8.43;;;4.15;;
80185;SDS011;69904;52.122;5.422;2023-12-14T00:15:57;10.43;;;4.35;;
80185;SDS011;69904;52.122;5.422;2023-12-14T00:18:24;6.95;;;4.00;;
80185;SDS011;69904;52.122;5.422;2023-12-14T00:20:51;7.68;;;3.88;;
80185;SDS011;69904;52.122;5.422;2023-12-14T00:23:17;9.65;;;4.55;;
80185;SDS011;69904;52.122;5.422;2023-12-14T00:25:44;7.32;;;4.05;;
80185;SDS011;69904;52.122;5.422;2023-12-14T00:28:11;8.02;;;3.67;;
80185;SDS011;69904;52.122;5.422;2023-12-14T00:30:37;8.55;;;4.65;;
80185;SDS011;69904;52.122;5.422;2023-12-14T00:33:04;6.47;;;3.72;;
80185;SDS011;69904;52.122;5.422;2023-12-14T00:35:30;7.05;;;3.92;;
80185;SDS011;69904;52.122;5.422;2023-12-14T00:37:57;6.88;;;3.53;;
80185;SDS011;69904;52.122;5.422;2023-12-14T00:40:23;7.78;;;4.00;;
80185;SDS011;69904;52.122;5.422;2023-12-14T00:42:51;10.93;;;4.63;;
80185;SDS011;69904;52.122;5.422;2023-12-14T00:45:17;6.85;;;4.50;;
80185;SDS011;69904;52.122;5.422;2023-12-14T00:47:44;6.60;;;3.50;;
80185;SDS011;69904;52.122;5.422;2023-12-14T00:50:10;7.05;;;3.00;;
80185;SDS011;69904;52.122;5.422;2023-12-14T00:52:37;9.27;;;4.40;;
80185;SDS011;69904;52.122;5.422;2023-12-14T00:55:04;6.80;;;4.10;;
80185;SDS011;69904;52.122;5.422;2023-12-14T00:57:31;5.80;;;3.25;;
80185;SDS011;69904;52.122;5.422;2023-12-14T00:59:57;7.45;;;3.97;;
80185;SDS011;69904;52.122;5.422;2023-12-14T01:02:24;8.25;;;3.90;;
80185;SDS011;69904;52.122;5.422;2023-12-14T01:04:50;7.07;;;4.03;;
80185;SDS011;69904;52.122;5.422;2023-12-14T01:07:17;8.13;;;4.20;;
80185;SDS011;69904;52.122;5.422;2023-12-14T01:09:43;8.45;;;4.45;;
80185;SDS011;69904;52.122;5.422;2023-12-14T01:12:10;9.13;;;3.72;;
80185;SDS011;69904;52.122;5.422;2023-12-14T01:14:36;7.78;;;3.78;;
80185;SDS011;69904;52.122;5.422;2023-12-14T01:17:02;9.00;;;4.22;;
80185;SDS011;69904;52.122;5.422;2023-12-14T01:19:29;8.32;;;4.55;;
80185;SDS011;69904;52.122;5.422;2023-12-14T01:21:55;6.88;;;3.60;;
80185;SDS011;69904;52.122;5.422;2023-12-14T01:24:22;12.23;;;3.95;;
80185;SDS011;69904;52.122;5.422;2023-12-14T01:26:48;8.05;;;3.38;;
80185;SDS011;69904;52.122;5.422;2023-12-14T01:29:15;4.93;;;2.83;;
80185;SDS011;69904;52.122;5.422;2023-12-14T01:31:41;7.57;;;3.72;;
80185;SDS011;69904;52.122;5.422;2023-12-14T01:34:08;7.90;;;4.28;;
80185;SDS011;69904;52.122;5.422;2023-12-14T01:36:36;6.68;;;4.05;;
80185;SDS011;69904;52.122;5.422;2023-12-14T01:39:03;6.05;;;3.13;;
80185;SDS011;69904;52.122;5.422;2023-12-14T01:41:29;8.82;;;4.70;;
80185;SDS011;69904;52.122;5.422;2023-12-14T01:43:55;6.85;;;3.58;;
80185;SDS011;69904;52.122;5.422;2023-12-14T01:46:22;7.10;;;3.33;;
80185;SDS011;69904;52.122;5.422;2023-12-14T01:48:48;7.15;;;4.03;;
80185;SDS011;69904;52.122;5.422;2023-12-14T01:51:15;5.88;;;3.67;;
80185;SDS011;69904;52.122;5.422;2023-12-14T01:53:41;6.82;;;3.78;;
80185;SDS011;69904;52.122;5.422;2023-12-14T01:56:08;8.70;;;3.70;;
80185;SDS011;69904;52.122;5.422;2023-12-14T01:58:34;7.47;;;4.68;;
80185;SDS011;69904;52.122;5.422;2023-12-14T02:01:09;8.18;;;4.40;;
80185;SDS011;69904;52.122;5.422;2023-12-14T02:03:46;8.27;;;4.68;;
80185;SDS011;69904;52.122;5.422;2023-12-14T02:06:14;6.78;;;3.33;;
80185;SDS011;69904;52.122;5.422;2023-12-14T02:08:41;7.18;;;4.72;;
80185;SDS011;69904;52.122;5.422;2023-12-14T02:11:08;6.47;;;3.88;;
80185;SDS011;69904;52.122;5.422;2023-12-14T02:13:34;8.02;;;3.20;;
80185;SDS011;69904;52.122;5.422;2023-12-14T02:16:01;6.40;;;2.78;;
80185;SDS011;69904;52.122;5.422;2023-12-14T02:18:27;9.50;;;4.22;;
80185;SDS011;69904;52.122;5.422;2023-12-14T02:20:54;7.00;;;3.63;;
80185;SDS011;69904;52.122;5.422;2023-12-14T02:23:20;6.10;;;3.45;;
80185;SDS011;69904;52.122;5.422;2023-12-14T02:25:47;7.80;;;4.07;;
80185;SDS011;69904;52.122;5.422;2023-12-14T02:28:13;5.57;;;2.80;;
80185;SDS011;69904;52.122;5.422;2023-12-14T02:30:40;8.60;;;3.97;;
80185;SDS011;69904;52.122;5.422;2023-12-14T02:33:06;6.45;;;3.28;;
80185;SDS011;69904;52.122;5.422;2023-12-14T02:35:33;6.65;;;3.67;;
80185;SDS011;69904;52.122;5.422;2023-12-14T02:37:59;5.97;;;3.38;;
80185;SDS011;69904;52.122;5.422;2023-12-14T02:40:26;5.78;;;3.17;;
80185;SDS011;69904;52.122;5.422;2023-12-14T02:42:52;5.55;;;3.30;;
80185;SDS011;69904;52.122;5.422;2023-12-14T02:45:19;7.25;;;3.33;;
80185;SDS011;69904;52.122;5.422;2023-12-14T02:47:45;6.30;;;3.60;;
80185;SDS011;69904;52.122;5.422;2023-12-14T02:50:13;7.75;;;3.78;;
80185;SDS011;69904;52.122;5.422;2023-12-14T02:52:40;8.18;;;4.40;;
80185;SDS011;69904;52.122;5.422;2023-12-14T02:55:07;6.10;;;3.53;;
80185;SDS011;69904;52.122;5.422;2023-12-14T02:57:33;8.05;;;4.25;;
80185;SDS011;69904;52.122;5.422;2023-12-14T03:00:00;5.93;;;3.50;;
80185;SDS011;69904;52.122;5.422;2023-12-14T03:02:26;6.60;;;3.63;;
80185;SDS011;69904;52.122;5.422;2023-12-14T03:04:53;7.32;;;3.42;;
80185;SDS011;69904;52.122;5.422;2023-12-14T03:07:20;7.43;;;3.70;;
80185;SDS011;69904;52.122;5.422;2023-12-14T03:09:46;8.45;;;4.13;;
80185;SDS011;69904;52.122;5.422;2023-12-14T03:12:13;7.47;;;4.07;;
80185;SDS011;69904;52.122;5.422;2023-12-14T03:14:39;7.13;;;4.50;;
80185;SDS011;69904;52.122;5.422;2023-12-14T03:17:07;8.40;;;4.25;;
80185;SDS011;69904;52.122;5.422;2023-12-14T03:19:39;8.55;;;4.13;;
80185;SDS011;69904;52.122;5.422;2023-12-14T03:22:07;7.93;;;4.00;;
80185;SDS011;69904;52.122;5.422;2023-12-14T03:24:37;6.60;;;3.63;;
80185;SDS011;69904;52.122;5.422;2023-12-14T03:27:04;9.32;;;4.18;;
80185;SDS011;69904;52.122;5.422;2023-12-14T03:29:31;7.95;;;4.60;;
80185;SDS011;69904;52.122;5.422;2023-12-14T03:31:57;8.30;;;4.18;;
80185;SDS011;69904;52.122;5.422;2023-12-14T03:34:24;7.47;;;4.30;;
80185;SDS011;69904;52.122;5.422;2023-12-14T03:36:51;8.35;;;3.70;;
80185;SDS011;69904;52.122;5.422;2023-12-14T03:39:17;7.43;;;4.13;;
80185;SDS011;69904;52.122;5.422;2023-12-14T03:41:44;7.90;;;4.35;;
80185;SDS011;69904;52.122;5.422;2023-12-14T03:44:11;8.95;;;4.30;;
80185;SDS011;69904;52.122;5.422;2023-12-14T03:46:37;10.65;;;4.53;;
80185;SDS011;69904;52.122;5.422;2023-12-14T03:49:04;8.50;;;4.63;;
80185;SDS011;69904;52.122;5.422;2023-12-14T03:51:30;7.57;;;3.90;;
80185;SDS011;69904;52.122;5.422;2023-12-14T03:53:57;9.23;;;4.38;;
80185;SDS011;69904;52.122;5.422;2023-12-14T03:56:24;8.10;;;3.67;;
80185;SDS011;69904;52.122;5.422;2023-12-14T03:58:50;11.57;;;4.25;;
80185;SDS011;69904;52.122;5.422;2023-12-14T04:01:17;8.77;;;4.28;;
80185;SDS011;69904;52.122;5.422;2023-12-14T04:06:14;7.40;;;3.92;;
80185;SDS011;69904;52.122;5.422;2023-12-14T04:08:41;8.00;;;3.92;;
80185;SDS011;69904;52.122;5.422;2023-12-14T04:11:08;8.57;;;3.95;;
80185;SDS011;69904;52.122;5.422;2023-12-14T04:13:34;9.18;;;4.55;;
80185;SDS011;69904;52.122;5.422;2023-12-14T04:16:01;7.15;;;3.42;;
80185;SDS011;69904;52.122;5.422;2023-12-14T04:18:28;7.70;;;3.40;;
80185;SDS011;69904;52.122;5.422;2023-12-14T04:20:55;7.97;;;4.15;;
80185;SDS011;69904;52.122;5.422;2023-12-14T04:23:21;9.35;;;4.32;;
80185;SDS011;69904;52.122;5.422;2023-12-14T04:25:48;8.07;;;4.25;;
80185;SDS011;69904;52.122;5.422;2023-12-14T04:28:14;7.63;;;3.85;;
80185;SDS011;69904;52.122;5.422;2023-12-14T04:30:41;7.90;;;3.88;;
80185;SDS011;69904;52.122;5.422;2023-12-14T04:33:07;7.03;;;3.55;;
80185;SDS011;69904;52.122;5.422;2023-12-14T04:35:34;8.50;;;4.55;;
80185;SDS011;69904;52.122;5.422;2023-12-14T04:38:03;6.78;;;3.47;;
80185;SDS011;69904;52.122;5.422;2023-12-14T04:40:30;9.48;;;3.65;;
80185;SDS011;69904;52.122;5.422;2023-12-14T04:42:57;5.93;;;3.00;;
80185;SDS011;69904;52.122;5.422;2023-12-14T04:45:23;9.55;;;3.92;;
80185;SDS011;69904;52.122;5.422;2023-12-14T04:47:49;5.55;;;2.92;;
80185;SDS011;69904;52.122;5.422;2023-12-14T04:50:16;8.55;;;3.92;;
80185;SDS011;69904;52.122;5.422;2023-12-14T04:52:43;8.73;;;4.20;;
80185;SDS011;69904;52.122;5.422;2023-12-14T04:55:09;8.70;;;3.75;;
80185;SDS011;69904;52.122;5.422;2023-12-14T04:57:35;6.30;;;3.50;;
80185;SDS011;69904;52.122;5.422;2023-12-14T05:00:03;6.72;;;3.20;;
80185;SDS011;69904;52.122;5.422;2023-12-14T05:02:31;7.13;;;3.78;;
80185;SDS011;69904;52.122;5.422;2023-12-14T05:04:59;6.60;;;3.75;;
80185;SDS011;69904;52.122;5.422;2023-12-14T05:07:25;7.47;;;3.75;;
80185;SDS011;69904;52.122;5.422;2023-12-14T05:09:52;5.15;;;3.17;;
80185;SDS011;69904;52.122;5.422;2023-12-14T05:12:18;6.85;;;2.70;;
80185;SDS011;69904;52.122;5.422;2023-12-14T05:14:45;8.70;;;3.53;;
80185;SDS011;69904;52.122;5.422;2023-12-14T05:17:11;5.90;;;2.47;;
80185;SDS011;69904;52.122;5.422;2023-12-14T05:19:38;5.28;;;3.20;;
80185;SDS011;69904;52.122;5.422;2023-12-14T05:22:04;7.80;;;3.08;;
80185;SDS011;69904;52.122;5.422;2023-12-14T05:24:31;5.40;;;2.97;;
80185;SDS011;69904;52.122;5.422;2023-12-14T05:26:57;5.45;;;2.95;;
80185;SDS011;69904;52.122;5.422;2023-12-14T05:29:24;6.05;;;3.35;;
80185;SDS011;69904;52.122;5.422;2023-12-14T05:31:50;6.05;;;3.10;;
80185;SDS011;69904;52.122;5.422;2023-12-14T05:34:16;5.88;;;3.35;;
80185;SDS011;69904;52.122;5.422;2023-12-14T05:36:43;7.90;;;3.47;;
80185;SDS011;69904;52.122;5.422;2023-12-14T05:39:09;4.25;;;2.28;;
80185;SDS011;69904;52.122;5.422;2023-12-14T05:41:39;6.07;;;3.08;;
80185;SDS011;69904;52.122;5.422;2023-12-14T05:44:07;7.57;;;3.20;;
80185;SDS011;69904;52.122;5.422;2023-12-14T05:46:34;10.43;;;3.72;;
80185;SDS011;69904;52.122;5.422;2023-12-14T05:49:00;6.00;;;2.88;;
80185;SDS011;69904;52.122;5.422;2023-12-14T05:51:28;5.18;;;2.75;;
80185;SDS011;69904;52.122;5.422;2023-12-14T05:53:55;4.80;;;2.65;;
80185;SDS011;69904;52.122;5.422;2023-12-14T05:56:21;8.80;;;3.70;;
80185;SDS011;69904;52.122;5.422;2023-12-14T05:58:48;7.15;;;2.60;;
80185;SDS011;69904;52.122;5.422;2023-12-14T06:01:18;6.05;;;2.88;;
80185;SDS011;69904;52.122;5.422;2023-12-14T06:03:45;4.72;;;2.45;;
80185;SDS011;69904;52.122;5.422;2023-12-14T06:06:12;5.60;;;2.53;;
80185;SDS011;69904;52.122;5.422;2023-12-14T06:08:42;6.28;;;2.80;;
80185;SDS011;69904;52.122;5.422;2023-12-14T06:11:08;6.28;;;3.08;;
80185;SDS011;69904;52.122;5.422;2023-12-14T06:13:35;6.25;;;3.10;;
80185;SDS011;69904;52.122;5.422;2023-12-14T06:16:02;8.68;;;3.03;;
80185;SDS011;69904;52.122;5.422;2023-12-14T06:18:29;4.80;;;2.00;;
80185;SDS011;69904;52.122;5.422;2023-12-14T06:20:56;5.78;;;1.95;;
80185;SDS011;69904;52.122;5.422;2023-12-14T06:23:22;5.43;;;2.45;;
80185;SDS011;69904;52.122;5.422;2023-12-14T06:25:49;4.90;;;2.65;;
80185;SDS011;69904;52.122;5.422;2023-12-14T06:28:15;5.53;;;2.88;;
80185;SDS011;69904;52.122;5.422;2023-12-14T06:30:42;7.72;;;2.67;;
80185;SDS011;69904;52.122;5.422;2023-12-14T06:33:08;6.10;;;2.60;;
80185;SDS011;69904;52.122;5.422;2023-12-14T06:35:35;4.45;;;2.83;;
80185;SDS011;69904;52.122;5.422;2023-12-14T06:38:02;7.45;;;2.40;;
80185;SDS011;69904;52.122;5.422;2023-12-14T06:40:28;5.07;;;2.20;;
80185;SDS011;69904;52.122;5.422;2023-12-14T06:42:54;4.28;;;2.20;;
80185;SDS011;69904;52.122;5.422;2023-12-14T06:45:21;6.70;;;2.47;;
80185;SDS011;69904;52.122;5.422;2023-12-14T06:47:48;5.85;;;2.63;;
80185;SDS011;69904;52.122;5.422;2023-12-14T06:50:14;6.05;;;3.30;;
80185;SDS011;69904;52.122;5.422;2023-12-14T06:52:41;4.60;;;2.60;;
80185;SDS011;69904;52.122;5.422;2023-12-14T06:55:08;5.90;;;2.38;;
80185;SDS011;69904;52.122;5.422;2023-12-14T06:57:35;6.45;;;3.42;;
80185;SDS011;69904;52.122;5.422;2023-12-14T07:00:02;7.72;;;3.28;;
80185;SDS011;69904;52.122;5.422;2023-12-14T07:02:28;7.78;;;2.55;;
80185;SDS011;69904;52.122;5.422;2023-12-14T07:04:55;4.95;;;2.42;;
80185;SDS011;69904;52.122;5.422;2023-12-14T07:07:21;4.60;;;2.47;;
80185;SDS011;69904;52.122;5.422;2023-12-14T07:09:47;4.38;;;2.42;;
80185;SDS011;69904;52.122;5.422;2023-12-14T07:12:14;6.07;;;2.88;;
80185;SDS011;69904;52.122;5.422;2023-12-14T07:14:41;6.35;;;2.90;;
80185;SDS011;69904;52.122;5.422;2023-12-14T07:17:07;4.53;;;2.58;;
80185;SDS011;69904;52.122;5.422;2023-12-14T07:19:34;4.95;;;2.38;;
80185;SDS011;69904;52.122;5.422;2023-12-14T07:22:02;6.82;;;2.75;;
80185;SDS011;69904;52.122;5.422;2023-12-14T07:24:28;6.75;;;2.70;;
80185;SDS011;69904;52.122;5.422;2023-12-14T07:27:02;5.05;;;2.85;;
80185;SDS011;69904;52.122;5.422;2023-12-14T07:29:29;5.10;;;3.63;;
80185;SDS011;69904;52.122;5.422;2023-12-14T07:31:56;5.15;;;3.33;;
80185;SDS011;69904;52.122;5.422;2023-12-14T07:34:22;4.40;;;2.60;;
80185;SDS011;69904;52.122;5.422;2023-12-14T07:36:50;4.35;;;2.60;;
80185;SDS011;69904;52.122;5.422;2023-12-14T07:39:17;5.20;;;2.40;;
80185;SDS011;69904;52.122;5.422;2023-12-14T07:41:44;7.22;;;3.53;;
80185;SDS011;69904;52.122;5.422;2023-12-14T07:44:10;6.88;;;3.15;;
80185;SDS011;69904;52.122;5.422;2023-12-14T07:46:37;4.63;;;2.33;;
80185;SDS011;69904;52.122;5.422;2023-12-14T07:49:07;3.30;;;2.40;;
80185;SDS011;69904;52.122;5.422;2023-12-14T07:51:34;4.70;;;2.92;;
80185;SDS011;69904;52.122;5.422;2023-12-14T07:54:00;5.20;;;2.58;;
80185;SDS011;69904;52.122;5.422;2023-12-14T07:56:26;6.18;;;2.95;;
80185;SDS011;69904;52.122;5.422;2023-12-14T07:58:53;5.97;;;2.83;;
80185;SDS011;69904;52.122;5.422;2023-12-14T08:01:20;5.80;;;2.85;;
80185;SDS011;69904;52.122;5.422;2023-12-14T08:03:47;4.68;;;2.65;;
80185;SDS011;69904;52.122;5.422;2023-12-14T08:06:13;6.22;;;3.42;;
80185;SDS011;69904;52.122;5.422;2023-12-14T08:08:41;6.13;;;3.22;;
80185;SDS011;69904;52.122;5.422;2023-12-14T08:11:08;7.75;;;3.53;;
80185;SDS011;69904;52.122;5.422;2023-12-14T08:13:35;7.18;;;3.80;;
80185;SDS011;69904;52.122;5.422;2023-12-14T08:16:04;6.30;;;3.30;;
80185;SDS011;69904;52.122;5.422;2023-12-14T08:18:30;6.00;;;3.20;;
80185;SDS011;69904;52.122;5.422;2023-12-14T08:20:57;4.50;;;2.53;;
80185;SDS011;69904;52.122;5.422;2023-12-14T08:23:23;5.82;;;2.55;;
80185;SDS011;69904;52.122;5.422;2023-12-14T08:25:53;5.07;;;2.65;;
80185;SDS011;69904;52.122;5.422;2023-12-14T08:28:23;7.53;;;2.67;;
80185;SDS011;69904;52.122;5.422;2023-12-14T08:30:50;6.60;;;3.35;;
80185;SDS011;69904;52.122;5.422;2023-12-14T08:33:16;5.60;;;2.85;;
80185;SDS011;69904;52.122;5.422;2023-12-14T08:35:43;9.98;;;3.47;;
80185;SDS011;69904;52.122;5.422;2023-12-14T08:38:10;5.70;;;2.88;;
80185;SDS011;69904;52.122;5.422;2023-12-14T08:40:37;6.55;;;2.90;;
80185;SDS011;69904;52.122;5.422;2023-12-14T08:43:05;5.25;;;2.72;;
80185;SDS011;69904;52.122;5.422;2023-12-14T08:45:32;6.82;;;3.33;;
80185;SDS011;69904;52.122;5.422;2023-12-14T08:47:58;6.00;;;3.03;;
80185;SDS011;69904;52.122;5.422;2023-12-14T08:50:25;5.20;;;2.97;;
80185;SDS011;69904;52.122;5.422;2023-12-14T08:52:52;4.45;;;2.40;;
80185;SDS011;69904;52.122;5.422;2023-12-14T08:55:21;6.03;;;3.10;;
80185;SDS011;69904;52.122;5.422;2023-12-14T08:57:48;4.97;;;2.75;;
80185;SDS011;69904;52.122;5.422;2023-12-14T09:00:14;5.82;;;3.10;;
80185;SDS011;69904;52.122;5.422;2023-12-14T09:02:42;6.55;;;3.08;;
80185;SDS011;69904;52.122;5.422;2023-12-14T09:05:10;4.13;;;3.00;;
80185;SDS011;69904;52.122;5.422;2023-12-14T09:07:41;5.28;;;3.22;;
80185;SDS011;69904;52.122;5.422;2023-12-14T09:10:07;6.85;;;3.55;;
80185;SDS011;69904;52.122;5.422;2023-12-14T09:12:34;6.20;;;2.95;;
80185;SDS011;69904;52.122;5.422;2023-12-14T09:15:01;4.95;;;2.55;;
80185;SDS011;69904;52.122;5.422;2023-12-14T09:17:28;7.20;;;3.17;;
80185;SDS011;69904;52.122;5.422;2023-12-14T09:20:03;4.82;;;3.00;;
80185;SDS011;69904;52.122;5.422;2023-12-14T09:22:31;6.63;;;3.45;;
80185;SDS011;69904;52.122;5.422;2023-12-14T09:24:58;6.65;;;3.42;;
80185;SDS011;69904;52.122;5.422;2023-12-14T09:27:24;6.28;;;3.67;;
80185;SDS011;69904;52.122;5.422;2023-12-14T09:29:50;6.97;;;2.92;;
80185;SDS011;69904;52.122;5.422;2023-12-14T09:32:17;4.80;;;2.17;;
80185;SDS011;69904;52.122;5.422;2023-12-14T09:34:44;6.00;;;2.72;;
80185;SDS011;69904;52.122;5.422;2023-12-14T09:37:11;8.13;;;3.67;;
80185;SDS011;69904;52.122;5.422;2023-12-14T09:39:39;3.97;;;2.70;;
80185;SDS011;69904;52.122;5.422;2023-12-14T09:42:06;7.30;;;3.83;;
80185;SDS011;69904;52.122;5.422;2023-12-14T09:44:34;4.78;;;2.85;;
80185;SDS011;69904;52.122;5.422;2023-12-14T09:47:01;4.93;;;2.78;;
80185;SDS011;69904;52.122;5.422;2023-12-14T09:49:31;6.00;;;2.85;;
80185;SDS011;69904;52.122;5.422;2023-12-14T09:51:58;5.13;;;2.95;;
80185;SDS011;69904;52.122;5.422;2023-12-14T09:54:26;5.32;;;3.38;;
80185;SDS011;69904;52.122;5.422;2023-12-14T09:56:53;4.97;;;3.05;;
80185;SDS011;69904;52.122;5.422;2023-12-14T09:59:20;6.03;;;2.92;;
80185;SDS011;69904;52.122;5.422;2023-12-14T10:01:47;6.03;;;3.30;;
80185;SDS011;69904;52.122;5.422;2023-12-14T10:04:15;5.97;;;3.08;;
80185;SDS011;69904;52.122;5.422;2023-12-14T10:06:43;5.78;;;3.30;;
80185;SDS011;69904;52.122;5.422;2023-12-14T10:09:11;6.07;;;3.67;;
80185;SDS011;69904;52.122;5.422;2023-12-14T10:11:42;5.05;;;2.85;;
80185;SDS011;69904;52.122;5.422;2023-12-14T10:16:52;4.38;;;2.38;;
80185;SDS011;69904;52.122;5.422;2023-12-14T10:19:28;4.82;;;2.58;;
80185;SDS011;69904;52.122;5.422;2023-12-14T10:21:55;4.55;;;2.40;;
80185;SDS011;69904;52.122;5.422;2023-12-14T10:24:21;4.32;;;2.40;;
80185;SDS011;69904;52.122;5.422;2023-12-14T10:26:48;5.53;;;2.70;;
80185;SDS011;69904;52.122;5.422;2023-12-14T10:29:16;4.65;;;2.53;;
80185;SDS011;69904;52.122;5.422;2023-12-14T10:31:43;5.05;;;3.05;;
80185;SDS011;69904;52.122;5.422;2023-12-14T10:34:10;6.80;;;2.78;;
80185;SDS011;69904;52.122;5.422;2023-12-14T10:36:39;7.25;;;3.15;;
80185;SDS011;69904;52.122;5.422;2023-12-14T10:39:06;4.32;;;2.72;;
80185;SDS011;69904;52.122;5.422;2023-12-14T10:41:37;6.10;;;2.63;;
80185;SDS011;69904;52.122;5.422;2023-12-14T10:44:05;6.05;;;3.33;;
80185;SDS011;69904;52.122;5.422;2023-12-14T10:46:54;6.03;;;2.95;;
80185;SDS011;69904;52.122;5.422;2023-12-14T10:49:25;6.78;;;3.15;;
80185;SDS011;69904;52.122;5.422;2023-12-14T10:51:52;4.45;;;3.17;;
80185;SDS011;69904;52.122;5.422;2023-12-14T10:54:21;5.38;;;2.80;;
80185;SDS011;69904;52.122;5.422;2023-12-14T10:56:56;4.63;;;2.90;;
80185;SDS011;69904;52.122;5.422;2023-12-14T10:59:26;4.93;;;3.00;;
80185;SDS011;69904;52.122;5.422;2023-12-14T11:01:53;6.53;;;3.17;;
80185;SDS011;69904;52.122;5.422;2023-12-14T11:04:21;4.18;;;2.63;;
80185;SDS011;69904;52.122;5.422;2023-12-14T11:06:48;7.20;;;2.92;;
80185;SDS011;69904;52.122;5.422;2023-12-14T11:09:16;5.70;;;3.17;;
80185;SDS011;69904;52.122;5.422;2023-12-14T11:14:26;5.05;;;2.80;;
80185;SDS011;69904;52.122;5.422;2023-12-14T11:16:54;6.45;;;3.13;;
80185;SDS011;69904;52.122;5.422;2023-12-14T11:21:56;5.05;;;2.95;;
80185;SDS011;69904;52.122;5.422;2023-12-14T11:24:42;4.85;;;2.90;;
80185;SDS011;69904;52.122;5.422;2023-12-14T11:27:11;5.55;;;2.85;;
80185;SDS011;69904;52.122;5.422;2023-12-14T11:29:38;4.72;;;2.80;;
80185;SDS011;69904;52.122;5.422;2023-12-14T11:32:07;7.00;;;2.83;;
80185;SDS011;69904;52.122;5.422;2023-12-14T11:34:34;4.60;;;3.17;;
80185;SDS011;69904;52.122;5.422;2023-12-14T11:37:01;6.38;;;3.38;;
80185;SDS011;69904;52.122;5.422;2023-12-14T11:39:30;5.70;;;2.70;;
80185;SDS011;69904;52.122;5.422;2023-12-14T11:42:00;5.10;;;2.60;;
80185;SDS011;69904;52.122;5.422;2023-12-14T11:44:28;6.00;;;2.58;;
80185;SDS011;69904;52.122;5.422;2023-12-14T11:46:56;4.80;;;2.63;;
80185;SDS011;69904;52.122;5.422;2023-12-14T11:49:26;5.18;;;2.53;;
80185;SDS011;69904;52.122;5.422;2023-12-14T11:51:55;5.82;;;2.83;;
80185;SDS011;69904;52.122;5.422;2023-12-14T11:54:22;5.75;;;3.13;;
80185;SDS011;69904;52.122;5.422;2023-12-14T11:56:49;6.00;;;3.20;;
80185;SDS011;69904;52.122;5.422;2023-12-14T11:59:16;5.93;;;3.00;;
80185;SDS011;69904;52.122;5.422;2023-12-14T12:01:57;7.32;;;3.13;;
80185;SDS011;69904;52.122;5.422;2023-12-14T12:04:25;5.07;;;3.15;;
80185;SDS011;69904;52.122;5.422;2023-12-14T12:07:05;6.97;;;3.13;;
80185;SDS011;69904;52.122;5.422;2023-12-14T12:09:35;4.35;;;2.95;;
80185;SDS011;69904;52.122;5.422;2023-12-14T12:12:08;7.75;;;2.92;;
80185;SDS011;69904;52.122;5.422;2023-12-14T12:14:36;6.85;;;3.15;;
80185;SDS011;69904;52.122;5.422;2023-12-14T12:17:03;5.53;;;3.10;;
80185;SDS011;69904;52.122;5.422;2023-12-14T12:19:32;6.57;;;3.00;;
80185;SDS011;69904;52.122;5.422;2023-12-14T12:22:00;5.93;;;3.40;;
80185;SDS011;69904;52.122;5.422;2023-12-14T12:24:27;7.03;;;3.70;;
80185;SDS011;69904;52.122;5.422;2023-12-14T12:26:56;5.15;;;2.88;;
80185;SDS011;69904;52.122;5.422;2023-12-14T12:29:22;6.07;;;2.92;;
80185;SDS011;69904;52.122;5.422;2023-12-14T12:31:49;7.18;;;3.22;;
80185;SDS011;69904;52.122;5.422;2023-12-14T12:34:15;4.93;;;2.60;;
80185;SDS011;69904;52.122;5.422;2023-12-14T12:36:42;6.03;;;3.25;;
80185;SDS011;69904;52.122;5.422;2023-12-14T12:39:09;5.65;;;2.92;;
80185;SDS011;69904;52.122;5.422;2023-12-14T12:41:35;6.95;;;3.13;;
80185;SDS011;69904;52.122;5.422;2023-12-14T12:44:04;4.35;;;2.88;;
80185;SDS011;69904;52.122;5.422;2023-12-14T12:46:35;4.63;;;2.55;;
80185;SDS011;69904;52.122;5.422;2023-12-14T12:49:02;6.55;;;2.92;;
80185;SDS011;69904;52.122;5.422;2023-12-14T12:51:31;5.18;;;2.55;;
80185;SDS011;69904;52.122;5.422;2023-12-14T12:53:58;5.93;;;2.72;;
80185;SDS011;69904;52.122;5.422;2023-12-14T12:56:38;5.10;;;2.70;;
80185;SDS011;69904;52.122;5.422;2023-12-14T12:59:04;5.63;;;2.80;;
80185;SDS011;69904;52.122;5.422;2023-12-14T13:01:35;5.88;;;2.55;;
80185;SDS011;69904;52.122;5.422;2023-12-14T13:04:01;4.78;;;2.53;;
80185;SDS011;69904;52.122;5.422;2023-12-14T13:06:30;6.85;;;2.85;;
80185;SDS011;69904;52.122;5.422;2023-12-14T13:08:57;4.30;;;2.45;;
80185;SDS011;69904;52.122;5.422;2023-12-14T13:11:23;4.30;;;2.40;;
80185;SDS011;69904;52.122;5.422;2023-12-14T13:13:51;8.60;;;3.72;;
80185;SDS011;69904;52.122;5.422;2023-12-14T13:16:17;4.60;;;2.63;;
80185;SDS011;69904;52.122;5.422;2023-12-14T13:18:44;4.85;;;2.25;;
80185;SDS011;69904;52.122;5.422;2023-12-14T13:21:12;6.20;;;3.25;;
80185;SDS011;69904;52.122;5.422;2023-12-14T13:23:39;4.50;;;2.58;;
80185;SDS011;69904;52.122;5.422;2023-12-14T13:26:05;5.28;;;2.63;;
80185;SDS011;69904;52.122;5.422;2023-12-14T13:28:32;4.60;;;2.13;;
80185;SDS011;69904;52.122;5.422;2023-12-14T13:30:58;3.33;;;2.30;;
80185;SDS011;69904;52.122;5.422;2023-12-14T13:33:25;3.83;;;2.40;;
80185;SDS011;69904;52.122;5.422;2023-12-14T13:35:54;4.80;;;2.25;;
80185;SDS011;69904;52.122;5.422;2023-12-14T13:38:21;4.25;;;1.52;;
80185;SDS011;69904;52.122;5.422;2023-12-14T13:40:47;5.65;;;2.25;;
80185;SDS011;69904;52.122;5.422;2023-12-14T13:43:14;2.15;;;1.63;;
80185;SDS011;69904;52.122;5.422;2023-12-14T13:45:40;3.85;;;1.80;;
80185;SDS011;69904;52.122;5.422;2023-12-14T13:48:08;2.85;;;1.73;;
80185;SDS011;69904;52.122;5.422;2023-12-14T13:50:35;4.60;;;1.90;;
80185;SDS011;69904;52.122;5.422;2023-12-14T13:55:29;3.05;;;1.45;;
80185;SDS011;69904;52.122;5.422;2023-12-14T13:57:55;5.40;;;2.05;;
80185;SDS011;69904;52.122;5.422;2023-12-14T14:00:24;3.17;;;2.30;;
80185;SDS011;69904;52.122;5.422;2023-12-14T14:02:51;3.45;;;1.77;;
80185;SDS011;69904;52.122;5.422;2023-12-14T14:05:17;4.07;;;1.92;;
80185;SDS011;69904;52.122;5.422;2023-12-14T14:07:44;3.83;;;1.70;;
80185;SDS011;69904;52.122;5.422;2023-12-14T14:10:11;4.00;;;2.05;;
80185;SDS011;69904;52.122;5.422;2023-12-14T14:12:38;5.40;;;2.25;;
80185;SDS011;69904;52.122;5.422;2023-12-14T14:15:05;2.95;;;1.52;;
80185;SDS011;69904;52.122;5.422;2023-12-14T14:19:58;3.70;;;1.95;;
80185;SDS011;69904;52.122;5.422;2023-12-14T14:22:25;2.70;;;1.50;;
80185;SDS011;69904;52.122;5.422;2023-12-14T14:24:51;6.05;;;2.72;;
80185;SDS011;69904;52.122;5.422;2023-12-14T14:27:18;4.57;;;2.20;;
80185;SDS011;69904;52.122;5.422;2023-12-14T14:29:44;4.05;;;2.03;;
80185;SDS011;69904;52.122;5.422;2023-12-14T14:32:11;5.50;;;2.53;;
80185;SDS011;69904;52.122;5.422;2023-12-14T14:34:37;6.75;;;2.53;;
80185;SDS011;69904;52.122;5.422;2023-12-14T14:37:04;7.30;;;2.80;;
80185;SDS011;69904;52.122;5.422;2023-12-14T14:39:30;4.85;;;2.72;;
80185;SDS011;69904;52.122;5.422;2023-12-14T14:41:56;5.75;;;2.67;;
80185;SDS011;69904;52.122;5.422;2023-12-14T14:44:23;5.65;;;2.80;;
80185;SDS011;69904;52.122;5.422;2023-12-14T14:46:50;5.88;;;2.80;;
80185;SDS011;69904;52.122;5.422;2023-12-14T14:49:17;4.30;;;2.45;;
80185;SDS011;69904;52.122;5.422;2023-12-14T14:51:44;5.03;;;2.47;;
80185;SDS011;69904;52.122;5.422;2023-12-14T14:54:10;6.53;;;3.17;;
80185;SDS011;69904;52.122;5.422;2023-12-14T14:56:37;6.25;;;3.05;;
80185;SDS011;69904;52.122;5.422;2023-12-14T14:59:03;3.63;;;2.15;;
80185;SDS011;69904;52.122;5.422;2023-12-14T15:01:30;6.43;;;3.03;;
80185;SDS011;69904;52.122;5.422;2023-12-14T15:03:56;4.88;;;2.90;;